sensor_id;sensor_type;location;lat;lon;timestamp;P1;durP1;ratioP1;P2;durP2;ratioP2
22628;SDS011;11481;53.694;9.910;2023-04-25T00:01:58;19.80;;;4.22;;
22628;SDS011;11481;53.694;9.910;2023-04-25T00:04:26;19.40;;;4.03;;
22628;SDS011;11481;53.694;9.910;2023-04-25T00:06:54;7.57;;;2.22;;
22628;SDS011;11481;53.694;9.910;2023-04-25T00:09:21;14.88;;;2.83;;
22628;SDS011;11481;53.694;9.910;2023-04-25T00:11:48;13.82;;;2.88;;
22628;SDS011;11481;53.694;9.910;2023-04-25T00:14:15;8.90;;;2.25;;
22628;SDS011;11481;53.694;9.910;2023-04-25T00:16:42;16.45;;;2.47;;
22628;SDS011;11481;53.694;9.910;2023-04-25T00:19:10;5.55;;;1.92;;
22628;SDS011;11481;53.694;9.910;2023-04-25T00:21:39;11.10;;;2.63;;
22628;SDS011;11481;53.694;9.910;2023-04-25T00:24:12;14.38;;;2.60;;
22628;SDS011;11481;53.694;9.910;2023-04-25T00:26:39;10.57;;;2.58;;
22628;SDS011;11481;53.694;9.910;2023-04-25T00:29:05;16.20;;;3.03;;
22628;SDS011;11481;53.694;9.910;2023-04-25T00:31:32;14.60;;;2.45;;
22628;SDS011;11481;53.694;9.910;2023-04-25T00:33:59;11.80;;;2.67;;
22628;SDS011;11481;53.694;9.910;2023-04-25T00:36:25;13.18;;;2.20;;
22628;SDS011;11481;53.694;9.910;2023-04-25T00:38:52;13.02;;;2.30;;
22628;SDS011;11481;53.694;9.910;2023-04-25T00:41:20;4.78;;;2.00;;
22628;SDS011;11481;53.694;9.910;2023-04-25T00:43:47;5.78;;;1.85;;
22628;SDS011;11481;53.694;9.910;2023-04-25T00:46:14;9.68;;;2.08;;
22628;SDS011;11481;53.694;9.910;2023-04-25T00:48:41;11.07;;;2.05;;
22628;SDS011;11481;53.694;9.910;2023-04-25T00:51:08;20.33;;;3.20;;
22628;SDS011;11481;53.694;9.910;2023-04-25T00:53:37;16.75;;;2.63;;
22628;SDS011;11481;53.694;9.910;2023-04-25T00:56:04;11.27;;;2.15;;
22628;SDS011;11481;53.694;9.910;2023-04-25T00:58:32;13.73;;;2.45;;
22628;SDS011;11481;53.694;9.910;2023-04-25T01:00:59;8.65;;;2.40;;
22628;SDS011;11481;53.694;9.910;2023-04-25T01:03:27;9.75;;;3.35;;
22628;SDS011;11481;53.694;9.910;2023-04-25T01:05:55;9.63;;;2.25;;
22628;SDS011;11481;53.694;9.910;2023-04-25T01:08:23;10.88;;;3.00;;
22628;SDS011;11481;53.694;9.910;2023-04-25T01:10:51;16.55;;;2.75;;
22628;SDS011;11481;53.694;9.910;2023-04-25T01:13:18;12.57;;;2.05;;
22628;SDS011;11481;53.694;9.910;2023-04-25T01:15:45;8.75;;;2.72;;
22628;SDS011;11481;53.694;9.910;2023-04-25T01:18:11;13.57;;;2.35;;
22628;SDS011;11481;53.694;9.910;2023-04-25T01:20:38;10.35;;;2.30;;
22628;SDS011;11481;53.694;9.910;2023-04-25T01:23:07;10.80;;;2.17;;
22628;SDS011;11481;53.694;9.910;2023-04-25T01:25:34;10.77;;;2.33;;
22628;SDS011;11481;53.694;9.910;2023-04-25T01:28:01;13.45;;;2.80;;
22628;SDS011;11481;53.694;9.910;2023-04-25T01:30:28;13.27;;;2.17;;
22628;SDS011;11481;53.694;9.910;2023-04-25T01:32:55;18.65;;;3.00;;
22628;SDS011;11481;53.694;9.910;2023-04-25T01:35:22;12.70;;;2.53;;
22628;SDS011;11481;53.694;9.910;2023-04-25T01:37:50;15.00;;;2.72;;
22628;SDS011;11481;53.694;9.910;2023-04-25T01:40:17;13.80;;;2.40;;
22628;SDS011;11481;53.694;9.910;2023-04-25T01:42:46;14.07;;;3.40;;
22628;SDS011;11481;53.694;9.910;2023-04-25T01:45:13;15.68;;;3.05;;
22628;SDS011;11481;53.694;9.910;2023-04-25T01:47:40;10.50;;;2.17;;
22628;SDS011;11481;53.694;9.910;2023-04-25T01:50:09;8.32;;;2.08;;
22628;SDS011;11481;53.694;9.910;2023-04-25T01:52:37;18.25;;;1.85;;
22628;SDS011;11481;53.694;9.910;2023-04-25T01:55:04;14.82;;;2.30;;
22628;SDS011;11481;53.694;9.910;2023-04-25T01:57:31;10.15;;;1.48;;
22628;SDS011;11481;53.694;9.910;2023-04-25T01:59:58;6.53;;;2.20;;
22628;SDS011;11481;53.694;9.910;2023-04-25T02:02:26;9.18;;;1.70;;
22628;SDS011;11481;53.694;9.910;2023-04-25T02:04:53;10.05;;;2.17;;
22628;SDS011;11481;53.694;9.910;2023-04-25T02:07:20;12.68;;;2.67;;
22628;SDS011;11481;53.694;9.910;2023-04-25T02:09:47;10.80;;;1.90;;
22628;SDS011;11481;53.694;9.910;2023-04-25T02:12:14;8.98;;;1.75;;
22628;SDS011;11481;53.694;9.910;2023-04-25T02:14:41;8.43;;;1.70;;
22628;SDS011;11481;53.694;9.910;2023-04-25T02:17:07;10.25;;;2.63;;
22628;SDS011;11481;53.694;9.910;2023-04-25T02:19:34;11.85;;;1.77;;
22628;SDS011;11481;53.694;9.910;2023-04-25T02:22:01;9.05;;;2.30;;
22628;SDS011;11481;53.694;9.910;2023-04-25T02:24:28;12.40;;;3.10;;
22628;SDS011;11481;53.694;9.910;2023-04-25T02:26:55;15.70;;;1.90;;
22628;SDS011;11481;53.694;9.910;2023-04-25T02:29:22;12.73;;;2.05;;
22628;SDS011;11481;53.694;9.910;2023-04-25T02:31:49;7.28;;;2.17;;
22628;SDS011;11481;53.694;9.910;2023-04-25T02:34:16;8.55;;;1.83;;
22628;SDS011;11481;53.694;9.910;2023-04-25T02:36:42;10.68;;;2.55;;
22628;SDS011;11481;53.694;9.910;2023-04-25T02:39:09;11.32;;;2.22;;
22628;SDS011;11481;53.694;9.910;2023-04-25T02:41:37;10.68;;;2.00;;
22628;SDS011;11481;53.694;9.910;2023-04-25T02:44:03;14.52;;;2.13;;
22628;SDS011;11481;53.694;9.910;2023-04-25T02:46:30;9.93;;;2.05;;
22628;SDS011;11481;53.694;9.910;2023-04-25T02:49:04;14.23;;;2.38;;
22628;SDS011;11481;53.694;9.910;2023-04-25T02:51:31;10.52;;;2.53;;
22628;SDS011;11481;53.694;9.910;2023-04-25T02:53:58;10.25;;;3.20;;
22628;SDS011;11481;53.694;9.910;2023-04-25T02:56:25;6.13;;;2.38;;
22628;SDS011;11481;53.694;9.910;2023-04-25T02:58:53;16.88;;;2.33;;
22628;SDS011;11481;53.694;9.910;2023-04-25T03:01:19;9.75;;;1.63;;
22628;SDS011;11481;53.694;9.910;2023-04-25T03:03:47;9.85;;;2.30;;
22628;SDS011;11481;53.694;9.910;2023-04-25T03:06:14;10.43;;;2.38;;
22628;SDS011;11481;53.694;9.910;2023-04-25T03:08:41;16.52;;;1.80;;
22628;SDS011;11481;53.694;9.910;2023-04-25T03:11:09;9.52;;;1.75;;
22628;SDS011;11481;53.694;9.910;2023-04-25T03:13:36;7.35;;;1.98;;
22628;SDS011;11481;53.694;9.910;2023-04-25T03:16:03;15.10;;;2.50;;
22628;SDS011;11481;53.694;9.910;2023-04-25T03:18:30;12.40;;;2.22;;
22628;SDS011;11481;53.694;9.910;2023-04-25T03:20:57;6.40;;;1.42;;
22628;SDS011;11481;53.694;9.910;2023-04-25T03:23:24;13.93;;;1.50;;
22628;SDS011;11481;53.694;9.910;2023-04-25T03:25:51;15.85;;;2.35;;
22628;SDS011;11481;53.694;9.910;2023-04-25T03:28:17;14.20;;;2.15;;
22628;SDS011;11481;53.694;9.910;2023-04-25T03:30:44;9.48;;;1.70;;
22628;SDS011;11481;53.694;9.910;2023-04-25T03:33:11;14.75;;;2.08;;
22628;SDS011;11481;53.694;9.910;2023-04-25T03:35:38;11.75;;;1.85;;
22628;SDS011;11481;53.694;9.910;2023-04-25T03:38:04;7.53;;;1.85;;
22628;SDS011;11481;53.694;9.910;2023-04-25T03:40:31;6.10;;;1.40;;
22628;SDS011;11481;53.694;9.910;2023-04-25T03:42:57;4.53;;;1.45;;
22628;SDS011;11481;53.694;9.910;2023-04-25T03:45:24;11.15;;;2.00;;
22628;SDS011;11481;53.694;9.910;2023-04-25T03:47:51;5.75;;;1.80;;
22628;SDS011;11481;53.694;9.910;2023-04-25T03:50:18;7.93;;;1.88;;
22628;SDS011;11481;53.694;9.910;2023-04-25T03:52:45;7.47;;;1.98;;
22628;SDS011;11481;53.694;9.910;2023-04-25T03:55:11;7.75;;;1.23;;
22628;SDS011;11481;53.694;9.910;2023-04-25T03:57:38;8.82;;;1.98;;
22628;SDS011;11481;53.694;9.910;2023-04-25T04:00:05;9.48;;;1.50;;
22628;SDS011;11481;53.694;9.910;2023-04-25T04:02:32;12.95;;;2.08;;
22628;SDS011;11481;53.694;9.910;2023-04-25T04:05:01;11.27;;;1.65;;
22628;SDS011;11481;53.694;9.910;2023-04-25T04:07:29;6.43;;;1.33;;
22628;SDS011;11481;53.694;9.910;2023-04-25T04:09:58;8.32;;;1.73;;
22628;SDS011;11481;53.694;9.910;2023-04-25T04:12:25;15.27;;;2.42;;
22628;SDS011;11481;53.694;9.910;2023-04-25T04:14:51;7.63;;;2.13;;
22628;SDS011;11481;53.694;9.910;2023-04-25T04:17:19;11.00;;;1.77;;
22628;SDS011;11481;53.694;9.910;2023-04-25T04:19:46;9.35;;;1.67;;
22628;SDS011;11481;53.694;9.910;2023-04-25T04:22:13;6.05;;;1.63;;
22628;SDS011;11481;53.694;9.910;2023-04-25T04:24:40;6.35;;;1.65;;
22628;SDS011;11481;53.694;9.910;2023-04-25T04:27:09;5.93;;;1.23;;
22628;SDS011;11481;53.694;9.910;2023-04-25T04:29:36;4.10;;;1.50;;
22628;SDS011;11481;53.694;9.910;2023-04-25T04:32:03;7.43;;;1.65;;
22628;SDS011;11481;53.694;9.910;2023-04-25T04:34:32;4.95;;;1.30;;
22628;SDS011;11481;53.694;9.910;2023-04-25T04:36:59;2.92;;;1.20;;
22628;SDS011;11481;53.694;9.910;2023-04-25T04:39:26;8.82;;;1.80;;
22628;SDS011;11481;53.694;9.910;2023-04-25T04:41:53;13.93;;;2.17;;
22628;SDS011;11481;53.694;9.910;2023-04-25T04:44:20;7.82;;;1.45;;
22628;SDS011;11481;53.694;9.910;2023-04-25T04:46:47;12.52;;;1.45;;
22628;SDS011;11481;53.694;9.910;2023-04-25T04:49:14;9.30;;;1.55;;
22628;SDS011;11481;53.694;9.910;2023-04-25T04:51:42;7.47;;;2.08;;
22628;SDS011;11481;53.694;9.910;2023-04-25T04:54:10;12.60;;;1.83;;
22628;SDS011;11481;53.694;9.910;2023-04-25T04:56:39;8.82;;;1.30;;
22628;SDS011;11481;53.694;9.910;2023-04-25T04:59:06;10.15;;;1.88;;
22628;SDS011;11481;53.694;9.910;2023-04-25T05:01:33;7.05;;;1.73;;
22628;SDS011;11481;53.694;9.910;2023-04-25T05:04:04;9.43;;;1.70;;
22628;SDS011;11481;53.694;9.910;2023-04-25T05:06:32;12.45;;;2.00;;
22628;SDS011;11481;53.694;9.910;2023-04-25T05:08:59;9.60;;;1.55;;
22628;SDS011;11481;53.694;9.910;2023-04-25T05:11:26;14.77;;;1.88;;
22628;SDS011;11481;53.694;9.910;2023-04-25T05:13:53;6.80;;;1.50;;
22628;SDS011;11481;53.694;9.910;2023-04-25T05:16:19;9.00;;;1.77;;
22628;SDS011;11481;53.694;9.910;2023-04-25T05:18:46;4.90;;;1.58;;
22628;SDS011;11481;53.694;9.910;2023-04-25T05:21:13;11.60;;;1.27;;
22628;SDS011;11481;53.694;9.910;2023-04-25T05:23:40;4.07;;;1.20;;
22628;SDS011;11481;53.694;9.910;2023-04-25T05:26:07;8.15;;;1.98;;
22628;SDS011;11481;53.694;9.910;2023-04-25T05:28:40;4.95;;;1.15;;
22628;SDS011;11481;53.694;9.910;2023-04-25T05:31:09;10.20;;;1.52;;
22628;SDS011;11481;53.694;9.910;2023-04-25T05:33:36;6.00;;;1.48;;
22628;SDS011;11481;53.694;9.910;2023-04-25T05:36:05;3.25;;;1.10;;
22628;SDS011;11481;53.694;9.910;2023-04-25T05:38:32;8.00;;;2.00;;
22628;SDS011;11481;53.694;9.910;2023-04-25T05:41:00;12.57;;;1.60;;
22628;SDS011;11481;53.694;9.910;2023-04-25T05:43:28;8.75;;;1.55;;
22628;SDS011;11481;53.694;9.910;2023-04-25T05:45:55;11.57;;;1.67;;
22628;SDS011;11481;53.694;9.910;2023-04-25T05:48:22;4.65;;;1.23;;
22628;SDS011;11481;53.694;9.910;2023-04-25T05:50:49;11.52;;;1.50;;
22628;SDS011;11481;53.694;9.910;2023-04-25T05:53:18;11.02;;;1.27;;
22628;SDS011;11481;53.694;9.910;2023-04-25T05:55:46;2.33;;;1.00;;
22628;SDS011;11481;53.694;9.910;2023-04-25T05:58:12;7.93;;;1.52;;
22628;SDS011;11481;53.694;9.910;2023-04-25T06:00:39;5.68;;;1.30;;
22628;SDS011;11481;53.694;9.910;2023-04-25T06:03:09;6.43;;;1.42;;
22628;SDS011;11481;53.694;9.910;2023-04-25T06:05:36;6.32;;;2.10;;
22628;SDS011;11481;53.694;9.910;2023-04-25T06:08:03;7.05;;;1.15;;
22628;SDS011;11481;53.694;9.910;2023-04-25T06:10:29;13.23;;;1.70;;
22628;SDS011;11481;53.694;9.910;2023-04-25T06:12:58;4.80;;;1.38;;
22628;SDS011;11481;53.694;9.910;2023-04-25T06:15:26;4.03;;;1.33;;
22628;SDS011;11481;53.694;9.910;2023-04-25T06:17:54;8.63;;;1.55;;
22628;SDS011;11481;53.694;9.910;2023-04-25T06:20:23;8.90;;;1.50;;
22628;SDS011;11481;53.694;9.910;2023-04-25T06:22:50;6.72;;;1.52;;
22628;SDS011;11481;53.694;9.910;2023-04-25T06:25:17;10.52;;;1.55;;
22628;SDS011;11481;53.694;9.910;2023-04-25T06:27:44;11.70;;;1.85;;
22628;SDS011;11481;53.694;9.910;2023-04-25T06:30:13;6.05;;;1.95;;
22628;SDS011;11481;53.694;9.910;2023-04-25T06:32:41;8.57;;;1.45;;
22628;SDS011;11481;53.694;9.910;2023-04-25T06:35:08;4.82;;;1.48;;
22628;SDS011;11481;53.694;9.910;2023-04-25T06:37:35;8.40;;;1.73;;
22628;SDS011;11481;53.694;9.910;2023-04-25T06:40:01;9.60;;;1.73;;
22628;SDS011;11481;53.694;9.910;2023-04-25T06:42:30;8.15;;;1.23;;
22628;SDS011;11481;53.694;9.910;2023-04-25T06:44:59;7.88;;;1.67;;
22628;SDS011;11481;53.694;9.910;2023-04-25T06:47:26;6.95;;;1.33;;
22628;SDS011;11481;53.694;9.910;2023-04-25T06:49:52;7.30;;;1.90;;
22628;SDS011;11481;53.694;9.910;2023-04-25T06:52:19;7.30;;;1.92;;
22628;SDS011;11481;53.694;9.910;2023-04-25T06:54:45;8.05;;;2.08;;
22628;SDS011;11481;53.694;9.910;2023-04-25T06:57:14;4.07;;;0.90;;
22628;SDS011;11481;53.694;9.910;2023-04-25T06:59:40;11.70;;;1.90;;
22628;SDS011;11481;53.694;9.910;2023-04-25T07:02:09;11.93;;;1.92;;
22628;SDS011;11481;53.694;9.910;2023-04-25T07:04:35;11.38;;;1.52;;
22628;SDS011;11481;53.694;9.910;2023-04-25T07:07:03;7.28;;;1.38;;
22628;SDS011;11481;53.694;9.910;2023-04-25T07:09:29;6.78;;;1.23;;
22628;SDS011;11481;53.694;9.910;2023-04-25T07:12:00;7.50;;;2.42;;
22628;SDS011;11481;53.694;9.910;2023-04-25T07:14:29;6.40;;;1.15;;
22628;SDS011;11481;53.694;9.910;2023-04-25T07:16:57;5.20;;;1.15;;
22628;SDS011;11481;53.694;9.910;2023-04-25T07:19:25;7.10;;;1.80;;
22628;SDS011;11481;53.694;9.910;2023-04-25T07:21:52;6.70;;;1.00;;
22628;SDS011;11481;53.694;9.910;2023-04-25T07:24:20;2.17;;;0.88;;
22628;SDS011;11481;53.694;9.910;2023-04-25T07:26:47;4.97;;;1.35;;
22628;SDS011;11481;53.694;9.910;2023-04-25T07:29:13;7.55;;;1.25;;
22628;SDS011;11481;53.694;9.910;2023-04-25T07:31:40;6.45;;;1.00;;
22628;SDS011;11481;53.694;9.910;2023-04-25T07:34:07;5.43;;;1.33;;
22628;SDS011;11481;53.694;9.910;2023-04-25T07:36:34;2.45;;;0.63;;
22628;SDS011;11481;53.694;9.910;2023-04-25T07:39:01;6.97;;;1.00;;
22628;SDS011;11481;53.694;9.910;2023-04-25T07:41:31;8.98;;;1.50;;
22628;SDS011;11481;53.694;9.910;2023-04-25T07:43:58;3.05;;;1.00;;
22628;SDS011;11481;53.694;9.910;2023-04-25T07:46:25;5.00;;;1.23;;
22628;SDS011;11481;53.694;9.910;2023-04-25T07:48:55;10.38;;;1.27;;
22628;SDS011;11481;53.694;9.910;2023-04-25T07:51:22;10.10;;;2.05;;
22628;SDS011;11481;53.694;9.910;2023-04-25T07:53:50;5.90;;;1.30;;
22628;SDS011;11481;53.694;9.910;2023-04-25T07:56:17;6.07;;;1.30;;
22628;SDS011;11481;53.694;9.910;2023-04-25T07:58:44;8.75;;;1.40;;
22628;SDS011;11481;53.694;9.910;2023-04-25T08:01:12;8.40;;;1.42;;
22628;SDS011;11481;53.694;9.910;2023-04-25T08:03:39;7.60;;;1.50;;
22628;SDS011;11481;53.694;9.910;2023-04-25T08:06:08;3.85;;;0.90;;
22628;SDS011;11481;53.694;9.910;2023-04-25T08:08:35;10.45;;;0.82;;
22628;SDS011;11481;53.694;9.910;2023-04-25T08:11:03;3.00;;;0.57;;
22628;SDS011;11481;53.694;9.910;2023-04-25T08:13:30;3.25;;;0.60;;
22628;SDS011;11481;53.694;9.910;2023-04-25T08:15:56;2.35;;;0.60;;
22628;SDS011;11481;53.694;9.910;2023-04-25T08:18:23;3.78;;;0.95;;
22628;SDS011;11481;53.694;9.910;2023-04-25T08:20:50;3.42;;;0.77;;
22628;SDS011;11481;53.694;9.910;2023-04-25T08:23:16;10.85;;;1.08;;
22628;SDS011;11481;53.694;9.910;2023-04-25T08:25:43;6.35;;;0.93;;
22628;SDS011;11481;53.694;9.910;2023-04-25T08:28:11;5.40;;;1.15;;
22628;SDS011;11481;53.694;9.910;2023-04-25T08:30:38;8.18;;;1.58;;
22628;SDS011;11481;53.694;9.910;2023-04-25T08:33:06;6.47;;;1.75;;
22628;SDS011;11481;53.694;9.910;2023-04-25T08:35:33;6.18;;;1.05;;
22628;SDS011;11481;53.694;9.910;2023-04-25T08:38:01;12.13;;;1.85;;
22628;SDS011;11481;53.694;9.910;2023-04-25T08:40:28;7.60;;;1.23;;
22628;SDS011;11481;53.694;9.910;2023-04-25T08:42:59;13.45;;;2.03;;
22628;SDS011;11481;53.694;9.910;2023-04-25T08:45:29;10.70;;;1.48;;
22628;SDS011;11481;53.694;9.910;2023-04-25T08:47:58;6.90;;;1.10;;
22628;SDS011;11481;53.694;9.910;2023-04-25T08:50:26;6.47;;;1.35;;
22628;SDS011;11481;53.694;9.910;2023-04-25T08:52:54;7.07;;;1.38;;
22628;SDS011;11481;53.694;9.910;2023-04-25T08:55:22;9.57;;;1.40;;
22628;SDS011;11481;53.694;9.910;2023-04-25T08:57:50;10.38;;;1.20;;
22628;SDS011;11481;53.694;9.910;2023-04-25T09:00:18;5.55;;;0.90;;
22628;SDS011;11481;53.694;9.910;2023-04-25T09:02:45;5.28;;;0.93;;
22628;SDS011;11481;53.694;9.910;2023-04-25T09:05:13;3.55;;;0.70;;
22628;SDS011;11481;53.694;9.910;2023-04-25T09:07:40;2.10;;;0.80;;
22628;SDS011;11481;53.694;9.910;2023-04-25T09:10:10;2.40;;;0.95;;
22628;SDS011;11481;53.694;9.910;2023-04-25T09:12:38;6.10;;;1.17;;
22628;SDS011;11481;53.694;9.910;2023-04-25T09:15:08;3.75;;;1.10;;
22628;SDS011;11481;53.694;9.910;2023-04-25T09:17:36;5.35;;;1.02;;
22628;SDS011;11481;53.694;9.910;2023-04-25T09:22:39;6.05;;;1.23;;
22628;SDS011;11481;53.694;9.910;2023-04-25T09:25:11;8.00;;;0.88;;
22628;SDS011;11481;53.694;9.910;2023-04-25T09:27:52;4.95;;;0.68;;
22628;SDS011;11481;53.694;9.910;2023-04-25T09:30:28;7.40;;;0.60;;
22628;SDS011;11481;53.694;9.910;2023-04-25T09:32:57;2.78;;;1.13;;
22628;SDS011;11481;53.694;9.910;2023-04-25T09:35:30;7.28;;;1.15;;
22628;SDS011;11481;53.694;9.910;2023-04-25T09:38:12;5.38;;;0.60;;
22628;SDS011;11481;53.694;9.910;2023-04-25T09:40:40;7.35;;;1.48;;
22628;SDS011;11481;53.694;9.910;2023-04-25T09:43:23;3.85;;;0.90;;
22628;SDS011;11481;53.694;9.910;2023-04-25T09:45:54;3.75;;;0.90;;
22628;SDS011;11481;53.694;9.910;2023-04-25T09:48:24;7.47;;;1.13;;
22628;SDS011;11481;53.694;9.910;2023-04-25T09:53:35;1.25;;;0.50;;
22628;SDS011;11481;53.694;9.910;2023-04-25T09:56:06;4.85;;;1.20;;
22628;SDS011;11481;53.694;9.910;2023-04-25T09:58:35;2.72;;;0.75;;
22628;SDS011;11481;53.694;9.910;2023-04-25T10:01:04;4.47;;;0.80;;
22628;SDS011;11481;53.694;9.910;2023-04-25T10:03:35;6.35;;;0.73;;
22628;SDS011;11481;53.694;9.910;2023-04-25T10:06:05;3.75;;;0.65;;
22628;SDS011;11481;53.694;9.910;2023-04-25T10:08:35;4.97;;;0.90;;
22628;SDS011;11481;53.694;9.910;2023-04-25T10:11:06;3.28;;;0.55;;
22628;SDS011;11481;53.694;9.910;2023-04-25T10:13:36;7.13;;;0.85;;
22628;SDS011;11481;53.694;9.910;2023-04-25T10:16:03;4.47;;;0.68;;
22628;SDS011;11481;53.694;9.910;2023-04-25T10:18:31;5.72;;;0.77;;
22628;SDS011;11481;53.694;9.910;2023-04-25T10:21:00;6.07;;;1.05;;
22628;SDS011;11481;53.694;9.910;2023-04-25T10:23:32;9.95;;;1.20;;
22628;SDS011;11481;53.694;9.910;2023-04-25T10:26:00;6.35;;;0.93;;
22628;SDS011;11481;53.694;9.910;2023-04-25T10:28:28;5.03;;;0.90;;
22628;SDS011;11481;53.694;9.910;2023-04-25T10:33:37;4.70;;;1.70;;
22628;SDS011;11481;53.694;9.910;2023-04-25T10:36:20;6.10;;;0.90;;
22628;SDS011;11481;53.694;9.910;2023-04-25T10:38:49;3.92;;;0.80;;
22628;SDS011;11481;53.694;9.910;2023-04-25T10:41:20;4.50;;;0.85;;
22628;SDS011;11481;53.694;9.910;2023-04-25T10:43:49;2.53;;;0.80;;
22628;SDS011;11481;53.694;9.910;2023-04-25T10:46:25;1.08;;;0.32;;
22628;SDS011;11481;53.694;9.910;2023-04-25T10:51:26;4.95;;;0.90;;
22628;SDS011;11481;53.694;9.910;2023-04-25T10:56:37;5.63;;;0.80;;
22628;SDS011;11481;53.694;9.910;2023-04-25T10:59:10;5.40;;;1.00;;
22628;SDS011;11481;53.694;9.910;2023-04-25T11:01:47;2.17;;;0.60;;
22628;SDS011;11481;53.694;9.910;2023-04-25T11:04:20;5.68;;;0.88;;
22628;SDS011;11481;53.694;9.910;2023-04-25T11:10:03;1.83;;;0.60;;
22628;SDS011;11481;53.694;9.910;2023-04-25T11:12:30;4.97;;;0.90;;
22628;SDS011;11481;53.694;9.910;2023-04-25T11:14:58;1.58;;;0.60;;
22628;SDS011;11481;53.694;9.910;2023-04-25T11:17:27;3.58;;;0.32;;
22628;SDS011;11481;53.694;9.910;2023-04-25T11:19:56;1.90;;;0.50;;
22628;SDS011;11481;53.694;9.910;2023-04-25T11:22:23;4.32;;;0.60;;
22628;SDS011;11481;53.694;9.910;2023-04-25T11:24:50;4.57;;;1.02;;
22628;SDS011;11481;53.694;9.910;2023-04-25T11:27:17;3.03;;;0.65;;
22628;SDS011;11481;53.694;9.910;2023-04-25T11:29:44;4.53;;;0.70;;
22628;SDS011;11481;53.694;9.910;2023-04-25T11:32:10;4.38;;;0.80;;
22628;SDS011;11481;53.694;9.910;2023-04-25T11:34:38;1.70;;;0.77;;
22628;SDS011;11481;53.694;9.910;2023-04-25T11:37:04;3.80;;;1.38;;
22628;SDS011;11481;53.694;9.910;2023-04-25T11:39:33;10.18;;;0.95;;
22628;SDS011;11481;53.694;9.910;2023-04-25T11:42:03;1.05;;;0.38;;
22628;SDS011;11481;53.694;9.910;2023-04-25T11:44:38;4.38;;;0.90;;
22628;SDS011;11481;53.694;9.910;2023-04-25T11:47:06;3.38;;;0.52;;
22628;SDS011;11481;53.694;9.910;2023-04-25T11:49:32;5.35;;;1.02;;
22628;SDS011;11481;53.694;9.910;2023-04-25T11:51:59;6.50;;;1.15;;
22628;SDS011;11481;53.694;9.910;2023-04-25T11:54:26;2.30;;;0.47;;
22628;SDS011;11481;53.694;9.910;2023-04-25T11:56:52;1.65;;;0.40;;
22628;SDS011;11481;53.694;9.910;2023-04-25T11:59:22;3.20;;;0.70;;
22628;SDS011;11481;53.694;9.910;2023-04-25T12:01:53;3.83;;;0.85;;
22628;SDS011;11481;53.694;9.910;2023-04-25T12:06:51;2.50;;;0.43;;
22628;SDS011;11481;53.694;9.910;2023-04-25T12:09:20;3.78;;;0.75;;
22628;SDS011;11481;53.694;9.910;2023-04-25T12:11:57;4.63;;;0.80;;
22628;SDS011;11481;53.694;9.910;2023-04-25T12:14:28;3.33;;;0.50;;
22628;SDS011;11481;53.694;9.910;2023-04-25T12:16:59;5.63;;;0.57;;
22628;SDS011;11481;53.694;9.910;2023-04-25T12:19:34;4.72;;;0.60;;
22628;SDS011;11481;53.694;9.910;2023-04-25T12:22:02;6.95;;;1.13;;
22628;SDS011;11481;53.694;9.910;2023-04-25T12:24:33;2.17;;;0.40;;
22628;SDS011;11481;53.694;9.910;2023-04-25T12:27:04;2.13;;;0.45;;
22628;SDS011;11481;53.694;9.910;2023-04-25T12:29:34;2.33;;;0.68;;
22628;SDS011;11481;53.694;9.910;2023-04-25T12:32:14;1.75;;;0.60;;
22628;SDS011;11481;53.694;9.910;2023-04-25T12:34:42;2.78;;;0.52;;
22628;SDS011;11481;53.694;9.910;2023-04-25T12:37:09;1.15;;;0.40;;
22628;SDS011;11481;53.694;9.910;2023-04-25T12:39:35;5.05;;;0.82;;
22628;SDS011;11481;53.694;9.910;2023-04-25T12:42:04;5.55;;;0.90;;
22628;SDS011;11481;53.694;9.910;2023-04-25T12:44:34;4.45;;;0.88;;
22628;SDS011;11481;53.694;9.910;2023-04-25T12:47:03;3.17;;;0.60;;
22628;SDS011;11481;53.694;9.910;2023-04-25T12:49:31;3.28;;;0.90;;
22628;SDS011;11481;53.694;9.910;2023-04-25T12:51:58;6.97;;;0.93;;
22628;SDS011;11481;53.694;9.910;2023-04-25T12:54:26;3.88;;;1.05;;
22628;SDS011;11481;53.694;9.910;2023-04-25T12:56:53;5.47;;;0.82;;
22628;SDS011;11481;53.694;9.910;2023-04-25T12:59:20;5.63;;;0.90;;
22628;SDS011;11481;53.694;9.910;2023-04-25T13:01:49;2.65;;;0.60;;
22628;SDS011;11481;53.694;9.910;2023-04-25T13:04:17;2.28;;;0.60;;
22628;SDS011;11481;53.694;9.910;2023-04-25T13:06:46;5.47;;;1.10;;
22628;SDS011;11481;53.694;9.910;2023-04-25T13:09:13;7.82;;;1.17;;
22628;SDS011;11481;53.694;9.910;2023-04-25T13:11:41;3.65;;;0.60;;
22628;SDS011;11481;53.694;9.910;2023-04-25T13:14:09;13.20;;;2.05;;
22628;SDS011;11481;53.694;9.910;2023-04-25T13:16:36;5.32;;;0.88;;
22628;SDS011;11481;53.694;9.910;2023-04-25T13:19:03;6.38;;;1.45;;
22628;SDS011;11481;53.694;9.910;2023-04-25T13:21:30;7.15;;;1.02;;
22628;SDS011;11481;53.694;9.910;2023-04-25T13:23:58;7.47;;;1.00;;
22628;SDS011;11481;53.694;9.910;2023-04-25T13:26:25;4.22;;;0.68;;
22628;SDS011;11481;53.694;9.910;2023-04-25T13:28:52;7.63;;;0.93;;
22628;SDS011;11481;53.694;9.910;2023-04-25T13:31:18;4.63;;;1.58;;
22628;SDS011;11481;53.694;9.910;2023-04-25T13:33:45;5.38;;;0.98;;
22628;SDS011;11481;53.694;9.910;2023-04-25T13:36:12;5.65;;;0.82;;
22628;SDS011;11481;53.694;9.910;2023-04-25T13:38:40;6.30;;;0.90;;
22628;SDS011;11481;53.694;9.910;2023-04-25T13:41:12;7.75;;;0.98;;
22628;SDS011;11481;53.694;9.910;2023-04-25T13:43:46;4.35;;;0.70;;
22628;SDS011;11481;53.694;9.910;2023-04-25T13:46:14;4.85;;;0.95;;
22628;SDS011;11481;53.694;9.910;2023-04-25T13:49:01;9.85;;;1.17;;
22628;SDS011;11481;53.694;9.910;2023-04-25T13:51:39;4.75;;;1.30;;
22628;SDS011;11481;53.694;9.910;2023-04-25T13:54:06;4.88;;;1.10;;
22628;SDS011;11481;53.694;9.910;2023-04-25T13:56:33;8.02;;;1.10;;
22628;SDS011;11481;53.694;9.910;2023-04-25T13:59:00;8.00;;;1.33;;
22628;SDS011;11481;53.694;9.910;2023-04-25T14:01:29;7.93;;;1.15;;
22628;SDS011;11481;53.694;9.910;2023-04-25T14:03:57;8.63;;;0.88;;
22628;SDS011;11481;53.694;9.910;2023-04-25T14:06:24;6.00;;;1.00;;
22628;SDS011;11481;53.694;9.910;2023-04-25T14:08:51;4.22;;;0.73;;
22628;SDS011;11481;53.694;9.910;2023-04-25T14:11:17;2.03;;;0.57;;
22628;SDS011;11481;53.694;9.910;2023-04-25T14:13:48;7.80;;;0.80;;
22628;SDS011;11481;53.694;9.910;2023-04-25T14:16:16;13.40;;;1.05;;
22628;SDS011;11481;53.694;9.910;2023-04-25T14:18:43;5.72;;;0.82;;
22628;SDS011;11481;53.694;9.910;2023-04-25T14:21:10;3.35;;;0.88;;
22628;SDS011;11481;53.694;9.910;2023-04-25T14:23:38;2.60;;;0.45;;
22628;SDS011;11481;53.694;9.910;2023-04-25T14:26:06;6.80;;;0.95;;
22628;SDS011;11481;53.694;9.910;2023-04-25T14:28:32;2.58;;;1.15;;
22628;SDS011;11481;53.694;9.910;2023-04-25T14:30:59;2.92;;;0.50;;
22628;SDS011;11481;53.694;9.910;2023-04-25T14:33:26;3.03;;;0.57;;
22628;SDS011;11481;53.694;9.910;2023-04-25T14:35:53;4.80;;;1.65;;
22628;SDS011;11481;53.694;9.910;2023-04-25T14:38:20;9.30;;;0.95;;
22628;SDS011;11481;53.694;9.910;2023-04-25T14:40:49;2.58;;;0.65;;
22628;SDS011;11481;53.694;9.910;2023-04-25T14:43:16;13.77;;;1.10;;
22628;SDS011;11481;53.694;9.910;2023-04-25T14:45:42;6.35;;;1.15;;
22628;SDS011;11481;53.694;9.910;2023-04-25T14:48:10;2.63;;;0.98;;
22628;SDS011;11481;53.694;9.910;2023-04-25T14:50:37;5.35;;;0.65;;
22628;SDS011;11481;53.694;9.910;2023-04-25T14:53:04;6.78;;;0.95;;
22628;SDS011;11481;53.694;9.910;2023-04-25T14:55:31;4.88;;;0.90;;
22628;SDS011;11481;53.694;9.910;2023-04-25T14:57:57;3.00;;;0.75;;
22628;SDS011;11481;53.694;9.910;2023-04-25T15:00:24;4.25;;;0.93;;
22628;SDS011;11481;53.694;9.910;2023-04-25T15:02:55;4.35;;;0.75;;
22628;SDS011;11481;53.694;9.910;2023-04-25T15:05:22;2.00;;;0.57;;
22628;SDS011;11481;53.694;9.910;2023-04-25T15:07:50;3.08;;;0.57;;